METAR for South-East England Channel Islands and France - 19 Feb 2018 - 0138 UTC - RocketRoute WX - rrwx.com
LFOB 190130Z AUTO 12005KT 9000 OVC035 01/M00 Q1021 NOSIG LFBD 190130Z AUTO 12003KT 2500 -DZ BR BKN002 OVC007 09/09 Q1019 TEMPO 0500 FG EGHH   LFRB 190130Z AUTO 33007KT 1100 1000 R25/1500D R07/P2000 BR VV/// 10/10 Q1020 TEMPO 2000 DZ LFRK 190130Z AUTO 16004KT 9999 OVC013 07/07 Q1019 LFRC 190130Z AUTO 21004KT 0650 0600 R28/0900N FG VV/// 07/07 Q1018 LFRG 190130Z AUTO 20007KT 3600 -DZ BR OVC004 06/06 Q1019 LFRD 190130Z AUTO 27002KT 0650 0600 R35L/0750N FG VV/// 09/08 Q1019 TEMPO 0800 FG EGLF   EGJB   EGJJ 190120Z AUTO 28004KT 0250 0200 R26///// FG SCT001/// OVC003/// 08/08 Q1019 LFPB 190130Z AUTO 12003KT CAVOK 00/M01 Q1021 TEMPO 4000 BR LFRM 190130Z AUTO 10002KT 9000 BKN010 BKN016 OVC030 06/06 Q1020 LFQQ 190130Z AUTO 15009KT 6000 NSC 01/M01 Q1021 NOSIG EGGW 190120Z AUTO 21006KT 4100 -DZ OVC003 06/05 Q1018 EGLC 190120Z AUTO VRB02KT 9999 OVC008 08/05 Q1019 EGKK 190120Z 22002KT 2000 BR BKN002 07/07 Q1018 EGLL 190120Z AUTO 22004KT 1100 R27R/P1500 -RADZ BKN002 OVC012 06/06 Q1019 TEMPO 4000 BKN006 EGSS 190120Z AUTO 18004KT 9999 BKN007 OVC010 06/05 Q1018 LFPO 190130Z 10002KT 6000 SCT009 BKN180 01/M00 Q1021 TEMPO 2500 BR LFPG 190130Z 13006KT 9000 NSC 01/M01 Q1021 NOSIG LFRN 190130Z AUTO 20002KT 2700 BR OVC002 08/07 Q1019 TEMPO VV/// EGHI   EGMC 190050Z 17003KT 9999 FEW008 BKN011 06/04 Q1019 LFPN 190100Z AUTO 12004KT 5000 BR NSC 01/00 Q1021

RocketRoute WX - rrwx.com weather for pilots